sensor_id;sensor_type;location;lat;lon;timestamp;P1;durP1;ratioP1;P2;durP2;ratioP2
30249;SDS011;17064;47.974;13.826;2023-03-19T00:04:46;13.93;;;7.68;;
30249;SDS011;17064;47.974;13.826;2023-03-19T00:09:47;18.10;;;8.30;;
30249;SDS011;17064;47.974;13.826;2023-03-19T00:14:48;19.88;;;9.70;;
30249;SDS011;17064;47.974;13.826;2023-03-19T00:19:48;21.27;;;9.20;;
30249;SDS011;17064;47.974;13.826;2023-03-19T00:24:50;18.02;;;8.50;;
30249;SDS011;17064;47.974;13.826;2023-03-19T00:29:51;17.75;;;9.68;;
30249;SDS011;17064;47.974;13.826;2023-03-19T00:34:52;11.18;;;6.68;;
30249;SDS011;17064;47.974;13.826;2023-03-19T00:39:52;11.98;;;6.72;;
30249;SDS011;17064;47.974;13.826;2023-03-19T00:44:53;14.30;;;5.88;;
30249;SDS011;17064;47.974;13.826;2023-03-19T00:49:54;15.07;;;6.50;;
30249;SDS011;17064;47.974;13.826;2023-03-19T00:54:55;12.43;;;6.22;;
30249;SDS011;17064;47.974;13.826;2023-03-19T00:59:56;11.43;;;7.03;;
30249;SDS011;17064;47.974;13.826;2023-03-19T01:04:57;12.07;;;6.60;;
30249;SDS011;17064;47.974;13.826;2023-03-19T01:09:57;12.70;;;7.13;;
30249;SDS011;17064;47.974;13.826;2023-03-19T01:14:58;18.27;;;7.55;;
30249;SDS011;17064;47.974;13.826;2023-03-19T01:19:59;12.45;;;6.47;;
30249;SDS011;17064;47.974;13.826;2023-03-19T01:25:00;12.25;;;6.22;;
30249;SDS011;17064;47.974;13.826;2023-03-19T01:30:01;11.25;;;5.70;;
30249;SDS011;17064;47.974;13.826;2023-03-19T01:35:02;12.40;;;6.38;;
30249;SDS011;17064;47.974;13.826;2023-03-19T01:40:04;12.27;;;6.30;;
30249;SDS011;17064;47.974;13.826;2023-03-19T01:45:26;16.85;;;6.70;;
30249;SDS011;17064;47.974;13.826;2023-03-19T01:50:38;13.30;;;7.30;;
30249;SDS011;17064;47.974;13.826;2023-03-19T01:55:41;14.15;;;6.80;;
30249;SDS011;17064;47.974;13.826;2023-03-19T02:00:41;16.35;;;7.93;;
30249;SDS011;17064;47.974;13.826;2023-03-19T02:05:43;14.40;;;7.32;;
30249;SDS011;17064;47.974;13.826;2023-03-19T02:10:46;11.70;;;6.85;;
30249;SDS011;17064;47.974;13.826;2023-03-19T02:15:47;14.60;;;7.45;;
30249;SDS011;17064;47.974;13.826;2023-03-19T02:20:53;13.77;;;7.80;;
30249;SDS011;17064;47.974;13.826;2023-03-19T02:26:05;21.90;;;8.15;;
30249;SDS011;17064;47.974;13.826;2023-03-19T02:31:06;12.63;;;7.20;;
30249;SDS011;17064;47.974;13.826;2023-03-19T02:36:09;11.48;;;7.13;;
30249;SDS011;17064;47.974;13.826;2023-03-19T02:41:16;14.07;;;6.20;;
30249;SDS011;17064;47.974;13.826;2023-03-19T02:46:17;13.80;;;6.40;;
30249;SDS011;17064;47.974;13.826;2023-03-19T02:51:18;13.00;;;6.20;;
30249;SDS011;17064;47.974;13.826;2023-03-19T02:56:19;15.38;;;6.32;;
30249;SDS011;17064;47.974;13.826;2023-03-19T03:01:19;10.20;;;5.82;;
30249;SDS011;17064;47.974;13.826;2023-03-19T03:06:20;13.00;;;6.18;;
30249;SDS011;17064;47.974;13.826;2023-03-19T03:11:21;11.93;;;5.82;;
30249;SDS011;17064;47.974;13.826;2023-03-19T03:16:22;10.32;;;5.88;;
30249;SDS011;17064;47.974;13.826;2023-03-19T03:21:23;12.35;;;6.40;;
30249;SDS011;17064;47.974;13.826;2023-03-19T03:26:24;11.27;;;5.65;;
30249;SDS011;17064;47.974;13.826;2023-03-19T03:31:26;15.02;;;6.65;;
30249;SDS011;17064;47.974;13.826;2023-03-19T03:36:27;11.10;;;6.50;;
30249;SDS011;17064;47.974;13.826;2023-03-19T03:41:27;10.43;;;5.43;;
30249;SDS011;17064;47.974;13.826;2023-03-19T03:46:28;10.18;;;6.00;;
30249;SDS011;17064;47.974;13.826;2023-03-19T03:51:29;12.60;;;5.38;;
30249;SDS011;17064;47.974;13.826;2023-03-19T03:56:30;8.50;;;5.57;;
30249;SDS011;17064;47.974;13.826;2023-03-19T04:01:32;9.13;;;5.53;;
30249;SDS011;17064;47.974;13.826;2023-03-19T04:06:33;8.93;;;5.65;;
30249;SDS011;17064;47.974;13.826;2023-03-19T04:11:34;13.00;;;6.47;;
30249;SDS011;17064;47.974;13.826;2023-03-19T04:16:35;15.35;;;7.00;;
30249;SDS011;17064;47.974;13.826;2023-03-19T04:21:37;13.45;;;7.72;;
30249;SDS011;17064;47.974;13.826;2023-03-19T04:26:37;14.75;;;7.55;;
30249;SDS011;17064;47.974;13.826;2023-03-19T04:31:38;15.35;;;7.25;;
30249;SDS011;17064;47.974;13.826;2023-03-19T04:36:39;17.50;;;8.20;;
30249;SDS011;17064;47.974;13.826;2023-03-19T04:41:40;16.02;;;9.40;;
30249;SDS011;17064;47.974;13.826;2023-03-19T04:46:41;16.52;;;8.93;;
30249;SDS011;17064;47.974;13.826;2023-03-19T04:51:43;17.10;;;8.67;;
30249;SDS011;17064;47.974;13.826;2023-03-19T04:56:44;16.77;;;8.98;;
30249;SDS011;17064;47.974;13.826;2023-03-19T05:01:45;18.20;;;8.88;;
30249;SDS011;17064;47.974;13.826;2023-03-19T05:06:46;22.88;;;9.57;;
30249;SDS011;17064;47.974;13.826;2023-03-19T05:11:46;16.98;;;8.45;;
30249;SDS011;17064;47.974;13.826;2023-03-19T05:16:47;19.20;;;8.90;;
30249;SDS011;17064;47.974;13.826;2023-03-19T05:21:48;19.60;;;9.52;;
30249;SDS011;17064;47.974;13.826;2023-03-19T05:26:49;21.73;;;9.57;;
30249;SDS011;17064;47.974;13.826;2023-03-19T05:31:50;21.52;;;9.55;;
30249;SDS011;17064;47.974;13.826;2023-03-19T05:36:51;17.35;;;9.82;;
30249;SDS011;17064;47.974;13.826;2023-03-19T05:41:51;23.65;;;11.00;;
30249;SDS011;17064;47.974;13.826;2023-03-19T05:46:52;23.17;;;11.95;;
30249;SDS011;17064;47.974;13.826;2023-03-19T05:51:53;27.17;;;12.02;;
30249;SDS011;17064;47.974;13.826;2023-03-19T05:56:55;24.38;;;11.98;;
30249;SDS011;17064;47.974;13.826;2023-03-19T06:01:56;24.70;;;12.05;;
30249;SDS011;17064;47.974;13.826;2023-03-19T06:06:57;29.38;;;12.88;;
30249;SDS011;17064;47.974;13.826;2023-03-19T06:11:57;22.35;;;12.55;;
30249;SDS011;17064;47.974;13.826;2023-03-19T06:16:58;27.13;;;11.85;;
30249;SDS011;17064;47.974;13.826;2023-03-19T06:21:59;23.02;;;11.65;;
30249;SDS011;17064;47.974;13.826;2023-03-19T06:27:00;25.83;;;10.10;;
30249;SDS011;17064;47.974;13.826;2023-03-19T06:32:01;24.48;;;11.38;;
30249;SDS011;17064;47.974;13.826;2023-03-19T06:37:01;26.05;;;10.88;;
30249;SDS011;17064;47.974;13.826;2023-03-19T06:42:02;27.25;;;12.20;;
30249;SDS011;17064;47.974;13.826;2023-03-19T06:47:03;22.10;;;11.20;;
30249;SDS011;17064;47.974;13.826;2023-03-19T06:52:04;21.60;;;11.50;;
30249;SDS011;17064;47.974;13.826;2023-03-19T06:57:05;21.25;;;11.60;;
30249;SDS011;17064;47.974;13.826;2023-03-19T07:02:05;26.92;;;11.38;;
30249;SDS011;17064;47.974;13.826;2023-03-19T07:07:08;23.97;;;11.00;;
30249;SDS011;17064;47.974;13.826;2023-03-19T07:12:09;16.95;;;9.35;;
30249;SDS011;17064;47.974;13.826;2023-03-19T07:17:10;16.00;;;9.05;;
30249;SDS011;17064;47.974;13.826;2023-03-19T07:22:11;14.45;;;8.48;;
30249;SDS011;17064;47.974;13.826;2023-03-19T07:27:12;13.80;;;7.95;;
30249;SDS011;17064;47.974;13.826;2023-03-19T07:32:13;13.30;;;8.68;;
30249;SDS011;17064;47.974;13.826;2023-03-19T07:37:14;18.88;;;8.60;;
30249;SDS011;17064;47.974;13.826;2023-03-19T07:42:15;15.15;;;7.45;;
30249;SDS011;17064;47.974;13.826;2023-03-19T07:47:16;17.58;;;9.23;;
30249;SDS011;17064;47.974;13.826;2023-03-19T07:52:16;24.98;;;11.40;;
30249;SDS011;17064;47.974;13.826;2023-03-19T07:57:18;27.70;;;13.05;;
30249;SDS011;17064;47.974;13.826;2023-03-19T08:02:19;25.63;;;12.77;;
30249;SDS011;17064;47.974;13.826;2023-03-19T08:07:20;20.65;;;11.80;;
30249;SDS011;17064;47.974;13.826;2023-03-19T08:12:21;21.42;;;12.95;;
30249;SDS011;17064;47.974;13.826;2023-03-19T08:17:22;23.40;;;13.05;;
30249;SDS011;17064;47.974;13.826;2023-03-19T08:22:22;21.55;;;11.50;;
30249;SDS011;17064;47.974;13.826;2023-03-19T08:27:23;20.95;;;10.65;;
30249;SDS011;17064;47.974;13.826;2023-03-19T08:32:24;18.85;;;9.55;;
30249;SDS011;17064;47.974;13.826;2023-03-19T08:37:25;14.60;;;9.02;;
30249;SDS011;17064;47.974;13.826;2023-03-19T08:42:25;14.05;;;8.38;;
30249;SDS011;17064;47.974;13.826;2023-03-19T08:47:27;13.48;;;7.95;;
30249;SDS011;17064;47.974;13.826;2023-03-19T08:52:28;13.80;;;7.60;;
30249;SDS011;17064;47.974;13.826;2023-03-19T08:57:30;16.48;;;7.30;;
30249;SDS011;17064;47.974;13.826;2023-03-19T09:02:31;11.73;;;7.20;;
30249;SDS011;17064;47.974;13.826;2023-03-19T09:07:32;13.60;;;7.53;;
30249;SDS011;17064;47.974;13.826;2023-03-19T09:12:32;14.63;;;7.13;;
30249;SDS011;17064;47.974;13.826;2023-03-19T09:17:33;12.10;;;5.97;;
30249;SDS011;17064;47.974;13.826;2023-03-19T09:22:34;15.80;;;5.88;;
30249;SDS011;17064;47.974;13.826;2023-03-19T09:27:35;7.82;;;4.00;;
30249;SDS011;17064;47.974;13.826;2023-03-19T09:32:36;6.80;;;4.22;;
30249;SDS011;17064;47.974;13.826;2023-03-19T09:37:36;10.68;;;4.55;;
30249;SDS011;17064;47.974;13.826;2023-03-19T09:48:06;9.38;;;4.70;;
30249;SDS011;17064;47.974;13.826;2023-03-19T09:58:36;12.13;;;5.30;;
30249;SDS011;17064;47.974;13.826;2023-03-19T10:03:41;11.57;;;5.90;;
30249;SDS011;17064;47.974;13.826;2023-03-19T10:09:10;14.15;;;5.43;;
30249;SDS011;17064;47.974;13.826;2023-03-19T10:19:54;16.88;;;5.60;;
30249;SDS011;17064;47.974;13.826;2023-03-19T10:25:09;9.52;;;6.03;;
30249;SDS011;17064;47.974;13.826;2023-03-19T10:30:16;11.02;;;6.65;;
30249;SDS011;17064;47.974;13.826;2023-03-19T10:35:19;11.98;;;6.43;;
30249;SDS011;17064;47.974;13.826;2023-03-19T10:40:25;10.57;;;5.38;;
30249;SDS011;17064;47.974;13.826;2023-03-19T10:45:43;9.82;;;5.32;;
30249;SDS011;17064;47.974;13.826;2023-03-19T10:55:45;10.80;;;6.10;;
30249;SDS011;17064;47.974;13.826;2023-03-19T11:01:02;13.82;;;6.25;;
30249;SDS011;17064;47.974;13.826;2023-03-19T11:22:19;9.77;;;6.03;;
30249;SDS011;17064;47.974;13.826;2023-03-19T11:27:41;13.05;;;6.55;;
30249;SDS011;17064;47.974;13.826;2023-03-19T11:32:52;13.13;;;6.55;;
30249;SDS011;17064;47.974;13.826;2023-03-19T11:38:22;15.48;;;7.10;;
30249;SDS011;17064;47.974;13.826;2023-03-19T11:43:34;15.43;;;7.28;;
30249;SDS011;17064;47.974;13.826;2023-03-19T12:15:46;15.23;;;8.68;;
30249;SDS011;17064;47.974;13.826;2023-03-19T12:21:02;21.27;;;9.20;;
30249;SDS011;17064;47.974;13.826;2023-03-19T12:26:31;25.27;;;10.63;;
30249;SDS011;17064;47.974;13.826;2023-03-19T12:37:39;25.60;;;9.40;;
30249;SDS011;17064;47.974;13.826;2023-03-19T12:42:58;19.95;;;9.43;;
30249;SDS011;17064;47.974;13.826;2023-03-19T12:48:06;18.13;;;8.20;;
30249;SDS011;17064;47.974;13.826;2023-03-19T13:04:13;38.40;;;9.45;;
30249;SDS011;17064;47.974;13.826;2023-03-19T13:09:28;19.30;;;8.00;;
30249;SDS011;17064;47.974;13.826;2023-03-19T13:14:59;26.48;;;8.60;;
30249;SDS011;17064;47.974;13.826;2023-03-19T13:25:59;13.80;;;7.00;;
30249;SDS011;17064;47.974;13.826;2023-03-19T13:31:19;25.48;;;7.05;;
30249;SDS011;17064;47.974;13.826;2023-03-19T13:36:24;12.25;;;6.15;;
30249;SDS011;17064;47.974;13.826;2023-03-19T13:46:35;11.05;;;5.85;;
30249;SDS011;17064;47.974;13.826;2023-03-19T13:51:38;13.05;;;5.90;;
30249;SDS011;17064;47.974;13.826;2023-03-19T14:02:00;11.93;;;5.55;;
30249;SDS011;17064;47.974;13.826;2023-03-19T14:07:29;9.32;;;5.10;;
30249;SDS011;17064;47.974;13.826;2023-03-19T14:12:36;17.35;;;7.13;;
30249;SDS011;17064;47.974;13.826;2023-03-19T14:17:53;11.68;;;6.82;;
30249;SDS011;17064;47.974;13.826;2023-03-19T14:28:10;15.18;;;6.45;;
30249;SDS011;17064;47.974;13.826;2023-03-19T14:33:16;14.05;;;7.05;;
30249;SDS011;17064;47.974;13.826;2023-03-19T14:54:29;10.40;;;6.15;;
30249;SDS011;17064;47.974;13.826;2023-03-19T14:59:52;11.57;;;6.13;;
30249;SDS011;17064;47.974;13.826;2023-03-19T15:04:54;8.98;;;5.85;;
30249;SDS011;17064;47.974;13.826;2023-03-19T15:09:55;19.70;;;7.18;;
30249;SDS011;17064;47.974;13.826;2023-03-19T15:15:07;13.82;;;6.90;;
30249;SDS011;17064;47.974;13.826;2023-03-19T15:20:35;10.68;;;7.28;;
30249;SDS011;17064;47.974;13.826;2023-03-19T15:25:49;37.28;;;7.47;;
30249;SDS011;17064;47.974;13.826;2023-03-19T15:31:01;13.75;;;7.00;;
30249;SDS011;17064;47.974;13.826;2023-03-19T15:36:08;12.18;;;7.97;;
30249;SDS011;17064;47.974;13.826;2023-03-19T15:41:15;14.48;;;8.35;;
30249;SDS011;17064;47.974;13.826;2023-03-19T15:46:18;13.70;;;7.20;;
30249;SDS011;17064;47.974;13.826;2023-03-19T15:51:23;11.27;;;7.03;;
30249;SDS011;17064;47.974;13.826;2023-03-19T15:56:26;11.10;;;7.22;;
30249;SDS011;17064;47.974;13.826;2023-03-19T16:01:28;12.98;;;7.18;;
30249;SDS011;17064;47.974;13.826;2023-03-19T16:06:36;8.27;;;6.43;;
30249;SDS011;17064;47.974;13.826;2023-03-19T16:11:41;14.10;;;6.68;;
30249;SDS011;17064;47.974;13.826;2023-03-19T16:16:46;10.25;;;6.82;;
30249;SDS011;17064;47.974;13.826;2023-03-19T16:21:48;12.57;;;7.78;;
30249;SDS011;17064;47.974;13.826;2023-03-19T16:26:49;13.10;;;8.02;;
30249;SDS011;17064;47.974;13.826;2023-03-19T16:32:36;14.55;;;7.60;;
30249;SDS011;17064;47.974;13.826;2023-03-19T16:42:44;15.70;;;7.20;;
30249;SDS011;17064;47.974;13.826;2023-03-19T16:47:53;13.10;;;7.30;;
30249;SDS011;17064;47.974;13.826;2023-03-19T16:53:00;12.32;;;7.43;;
30249;SDS011;17064;47.974;13.826;2023-03-19T16:58:06;15.15;;;8.10;;
30249;SDS011;17064;47.974;13.826;2023-03-19T17:03:16;10.55;;;7.35;;
30249;SDS011;17064;47.974;13.826;2023-03-19T17:08:19;12.90;;;8.93;;
30249;SDS011;17064;47.974;13.826;2023-03-19T17:13:26;14.07;;;8.27;;
30249;SDS011;17064;47.974;13.826;2023-03-19T17:18:37;13.90;;;9.02;;
30249;SDS011;17064;47.974;13.826;2023-03-19T17:23:41;15.38;;;9.07;;
30249;SDS011;17064;47.974;13.826;2023-03-19T17:28:42;14.80;;;8.68;;
30249;SDS011;17064;47.974;13.826;2023-03-19T17:33:43;15.35;;;8.88;;
30249;SDS011;17064;47.974;13.826;2023-03-19T17:38:45;12.95;;;8.73;;
30249;SDS011;17064;47.974;13.826;2023-03-19T17:43:46;14.10;;;8.00;;
30249;SDS011;17064;47.974;13.826;2023-03-19T17:48:47;14.57;;;9.25;;
30249;SDS011;17064;47.974;13.826;2023-03-19T17:53:52;18.58;;;10.43;;
30249;SDS011;17064;47.974;13.826;2023-03-19T17:58:55;16.50;;;8.68;;
30249;SDS011;17064;47.974;13.826;2023-03-19T18:03:57;14.93;;;7.90;;
30249;SDS011;17064;47.974;13.826;2023-03-19T18:08:59;12.30;;;8.20;;
30249;SDS011;17064;47.974;13.826;2023-03-19T18:14:01;16.00;;;8.57;;
30249;SDS011;17064;47.974;13.826;2023-03-19T18:19:03;14.43;;;7.88;;
30249;SDS011;17064;47.974;13.826;2023-03-19T18:24:16;20.63;;;9.10;;
30249;SDS011;17064;47.974;13.826;2023-03-19T18:29:18;15.48;;;9.23;;
30249;SDS011;17064;47.974;13.826;2023-03-19T18:34:19;19.80;;;11.77;;
30249;SDS011;17064;47.974;13.826;2023-03-19T18:39:20;19.63;;;12.73;;
30249;SDS011;17064;47.974;13.826;2023-03-19T18:44:21;19.83;;;11.52;;
30249;SDS011;17064;47.974;13.826;2023-03-19T18:49:24;17.67;;;11.15;;
30249;SDS011;17064;47.974;13.826;2023-03-19T18:54:26;16.23;;;10.45;;
30249;SDS011;17064;47.974;13.826;2023-03-19T18:59:30;19.58;;;11.02;;
30249;SDS011;17064;47.974;13.826;2023-03-19T19:04:34;23.88;;;12.88;;
30249;SDS011;17064;47.974;13.826;2023-03-19T19:09:37;22.45;;;12.15;;
30249;SDS011;17064;47.974;13.826;2023-03-19T19:14:41;23.88;;;13.57;;
30249;SDS011;17064;47.974;13.826;2023-03-19T19:19:45;20.55;;;11.57;;
30249;SDS011;17064;47.974;13.826;2023-03-19T19:24:46;22.33;;;11.30;;
30249;SDS011;17064;47.974;13.826;2023-03-19T19:29:47;25.33;;;12.95;;
30249;SDS011;17064;47.974;13.826;2023-03-19T19:34:50;20.52;;;11.20;;
30249;SDS011;17064;47.974;13.826;2023-03-19T19:39:52;18.27;;;10.68;;
30249;SDS011;17064;47.974;13.826;2023-03-19T19:44:55;15.73;;;10.07;;
30249;SDS011;17064;47.974;13.826;2023-03-19T19:49:59;18.55;;;11.00;;
30249;SDS011;17064;47.974;13.826;2023-03-19T19:55:01;18.25;;;11.15;;
30249;SDS011;17064;47.974;13.826;2023-03-19T20:00:02;21.52;;;11.15;;
30249;SDS011;17064;47.974;13.826;2023-03-19T20:10:09;26.20;;;12.00;;
30249;SDS011;17064;47.974;13.826;2023-03-19T20:15:16;36.75;;;15.63;;
30249;SDS011;17064;47.974;13.826;2023-03-19T20:20:29;42.65;;;17.85;;
30249;SDS011;17064;47.974;13.826;2023-03-19T20:25:32;36.47;;;16.63;;
30249;SDS011;17064;47.974;13.826;2023-03-19T20:30:34;27.27;;;14.50;;
30249;SDS011;17064;47.974;13.826;2023-03-19T20:35:37;23.52;;;13.80;;
30249;SDS011;17064;47.974;13.826;2023-03-19T20:40:41;32.35;;;14.82;;
30249;SDS011;17064;47.974;13.826;2023-03-19T20:45:50;36.17;;;16.67;;
30249;SDS011;17064;47.974;13.826;2023-03-19T20:50:52;36.38;;;17.17;;
30249;SDS011;17064;47.974;13.826;2023-03-19T20:55:54;48.45;;;20.05;;
30249;SDS011;17064;47.974;13.826;2023-03-19T21:00:56;51.13;;;19.55;;
30249;SDS011;17064;47.974;13.826;2023-03-19T21:06:04;46.10;;;20.45;;
30249;SDS011;17064;47.974;13.826;2023-03-19T21:11:21;45.03;;;20.98;;
30249;SDS011;17064;47.974;13.826;2023-03-19T21:16:24;37.17;;;17.85;;
30249;SDS011;17064;47.974;13.826;2023-03-19T21:21:28;33.67;;;15.63;;
30249;SDS011;17064;47.974;13.826;2023-03-19T21:26:36;28.00;;;14.15;;
30249;SDS011;17064;47.974;13.826;2023-03-19T21:31:38;24.05;;;11.85;;
30249;SDS011;17064;47.974;13.826;2023-03-19T21:36:39;21.45;;;11.90;;
30249;SDS011;17064;47.974;13.826;2023-03-19T21:41:40;23.80;;;10.65;;
30249;SDS011;17064;47.974;13.826;2023-03-19T21:46:41;18.50;;;10.50;;
30249;SDS011;17064;47.974;13.826;2023-03-19T21:51:45;13.95;;;9.63;;
30249;SDS011;17064;47.974;13.826;2023-03-19T21:56:46;16.63;;;9.35;;
30249;SDS011;17064;47.974;13.826;2023-03-19T22:01:46;16.23;;;8.68;;
30249;SDS011;17064;47.974;13.826;2023-03-19T22:06:47;17.95;;;9.82;;
30249;SDS011;17064;47.974;13.826;2023-03-19T22:11:48;16.05;;;9.88;;
30249;SDS011;17064;47.974;13.826;2023-03-19T22:16:49;19.75;;;11.15;;
30249;SDS011;17064;47.974;13.826;2023-03-19T22:26:54;16.85;;;9.13;;
30249;SDS011;17064;47.974;13.826;2023-03-19T22:31:56;15.80;;;9.33;;
30249;SDS011;17064;47.974;13.826;2023-03-19T22:36:57;19.00;;;10.40;;
30249;SDS011;17064;47.974;13.826;2023-03-19T22:41:58;21.55;;;12.65;;
30249;SDS011;17064;47.974;13.826;2023-03-19T22:46:59;31.73;;;15.15;;
30249;SDS011;17064;47.974;13.826;2023-03-19T22:52:01;26.60;;;13.63;;
30249;SDS011;17064;47.974;13.826;2023-03-19T22:57:02;21.10;;;13.30;;
30249;SDS011;17064;47.974;13.826;2023-03-19T23:02:03;22.52;;;11.55;;
30249;SDS011;17064;47.974;13.826;2023-03-19T23:07:03;19.65;;;11.18;;
30249;SDS011;17064;47.974;13.826;2023-03-19T23:12:05;14.40;;;9.73;;
30249;SDS011;17064;47.974;13.826;2023-03-19T23:17:12;19.05;;;9.90;;
30249;SDS011;17064;47.974;13.826;2023-03-19T23:22:16;15.88;;;9.77;;
30249;SDS011;17064;47.974;13.826;2023-03-19T23:27:23;20.90;;;10.80;;
30249;SDS011;17064;47.974;13.826;2023-03-19T23:32:25;18.27;;;9.52;;
30249;SDS011;17064;47.974;13.826;2023-03-19T23:37:25;15.43;;;9.73;;
30249;SDS011;17064;47.974;13.826;2023-03-19T23:42:27;15.18;;;8.80;;
30249;SDS011;17064;47.974;13.826;2023-03-19T23:47:30;21.33;;;9.70;;
30249;SDS011;17064;47.974;13.826;2023-03-19T23:52:31;16.08;;;9.50;;
30249;SDS011;17064;47.974;13.826;2023-03-19T23:57:32;14.38;;;9.18;;
